createdAt,value
2023-05-03T00:00:42.663Z,91.20
2023-05-03T00:03:09.378Z,91.30
2023-05-03T00:05:36.332Z,91.20
2023-05-03T00:08:03.420Z,91.10
2023-05-03T00:10:30.021Z,91.30
2023-05-03T00:12:56.755Z,91.20
2023-05-03T00:15:23.409Z,91.50
2023-05-03T00:17:50.207Z,91.30
2023-05-03T00:20:17.537Z,91.30
2023-05-03T00:22:44.162Z,91.30
2023-05-03T00:25:10.848Z,91.40
2023-05-03T00:27:38.161Z,91.60
2023-05-03T00:30:05.785Z,91.60
2023-05-03T00:32:33.436Z,91.60
2023-05-03T00:35:00.550Z,91.70
2023-05-03T00:37:27.489Z,91.70
2023-05-03T00:39:54.074Z,91.60
2023-05-03T00:42:20.790Z,91.60
2023-05-03T00:44:47.425Z,91.80
2023-05-03T00:47:16.496Z,91.60
2023-05-03T00:49:44.134Z,91.50
2023-05-03T00:52:11.384Z,91.70
2023-05-03T00:54:38.620Z,91.70
2023-05-03T00:57:05.904Z,91.60
2023-05-03T00:59:34.249Z,92.10
2023-05-03T01:02:01.237Z,91.80
2023-05-03T01:04:28.472Z,91.90
2023-05-03T01:07:31.903Z,92.00
2023-05-03T01:10:19.439Z,91.90
2023-05-03T01:13:17.362Z,92.00
2023-05-03T01:16:09.076Z,92.00
2023-05-03T01:18:40.114Z,92.00
2023-05-03T01:21:09.152Z,92.10
2023-05-03T01:23:56.768Z,92.40
2023-05-03T01:26:25.859Z,92.20
2023-05-03T01:28:52.795Z,92.40
2023-05-03T01:31:37.970Z,92.40
2023-05-03T01:34:16.878Z,92.40
2023-05-03T01:36:44.969Z,92.40
2023-05-03T01:39:24.375Z,92.20
2023-05-03T01:41:52.129Z,92.40
2023-05-03T01:44:21.656Z,92.50
2023-05-03T01:46:49.587Z,92.40
2023-05-03T01:49:16.387Z,92.40
2023-05-03T01:51:43.027Z,92.40
2023-05-03T01:54:11.251Z,92.40
2023-05-03T01:56:38.588Z,92.50
2023-05-03T01:59:05.213Z,92.70
2023-05-03T02:01:31.942Z,92.50
2023-05-03T02:03:58.654Z,92.60
2023-05-03T02:06:26.069Z,92.80
2023-05-03T02:08:53.488Z,92.80
2023-05-03T02:11:21.418Z,92.70
2023-05-03T02:13:52.695Z,92.80
2023-05-03T02:16:19.411Z,92.90
2023-05-03T02:18:46.502Z,92.80
2023-05-03T02:21:14.143Z,92.70
2023-05-03T02:23:40.921Z,93.00
2023-05-03T02:26:07.930Z,93.00
2023-05-03T02:28:35.067Z,93.10
2023-05-03T02:31:02.234Z,93.10
2023-05-03T02:33:28.868Z,92.80
2023-05-03T02:35:56.121Z,92.90
2023-05-03T02:38:23.562Z,92.80
2023-05-03T02:40:50.954Z,92.80
2023-05-03T02:43:17.539Z,92.80
2023-05-03T02:45:44.727Z,93.20
2023-05-03T02:48:12.648Z,93.10
2023-05-03T02:50:40.030Z,92.90
2023-05-03T02:53:07.031Z,92.80
2023-05-03T02:55:34.569Z,92.90
2023-05-03T02:58:01.676Z,92.90
2023-05-03T03:00:28.703Z,92.90
2023-05-03T03:02:55.558Z,92.90
2023-05-03T03:05:22.314Z,92.80
2023-05-03T03:07:50.758Z,93.00
2023-05-03T03:10:18.010Z,92.90
2023-05-03T03:12:45.255Z,93.10
2023-05-03T03:15:21.265Z,93.10
2023-05-03T03:17:48.206Z,93.10
2023-05-03T03:20:14.989Z,93.30
2023-05-03T03:22:45.568Z,93.30
2023-05-03T03:25:12.329Z,93.30
2023-05-03T03:27:39.868Z,93.10
2023-05-03T03:30:08.161Z,93.30
2023-05-03T03:32:37.794Z,93.50
2023-05-03T03:35:10.122Z,93.30
2023-05-03T03:37:38.896Z,93.40
2023-05-03T03:40:07.707Z,93.40
2023-05-03T03:42:35.986Z,93.40
2023-05-03T03:45:04.663Z,93.50
2023-05-03T03:47:31.302Z,93.70
2023-05-03T03:50:00.188Z,93.60
2023-05-03T03:52:28.583Z,93.70
2023-05-03T03:54:55.156Z,94.00
2023-05-03T03:57:22.233Z,93.60
2023-05-03T03:59:48.928Z,93.70
2023-05-03T04:02:15.631Z,93.70
2023-05-03T04:04:43.211Z,93.80
2023-05-03T04:07:10.464Z,93.70
2023-05-03T04:09:37.152Z,93.70
2023-05-03T04:12:04.247Z,93.70
2023-05-03T04:14:31.109Z,93.90
2023-05-03T04:16:58.249Z,94.10
2023-05-03T04:19:26.128Z,93.80
2023-05-03T04:21:52.819Z,93.90
2023-05-03T04:24:21.158Z,93.90
2023-05-03T04:26:51.174Z,94.10
2023-05-03T04:29:25.032Z,94.10
2023-05-03T04:31:52.023Z,94.10
2023-05-03T04:34:18.971Z,94.00
2023-05-03T04:36:48.980Z,94.20
2023-05-03T04:39:16.543Z,94.10
2023-05-03T04:41:45.560Z,94.20
2023-05-03T04:44:14.271Z,94.30
2023-05-03T04:46:41.892Z,94.10
2023-05-03T04:49:08.776Z,94.00
2023-05-03T04:51:35.513Z,94.60
2023-05-03T04:54:02.795Z,94.10
2023-05-03T04:56:29.622Z,94.10
2023-05-03T04:59:05.554Z,94.40
2023-05-03T05:01:33.346Z,94.30
2023-05-03T05:04:02.811Z,94.30
2023-05-03T05:06:37.232Z,94.10
2023-05-03T05:09:07.454Z,94.10
2023-05-03T05:11:34.596Z,94.10
2023-05-03T05:14:01.420Z,94.20
2023-05-03T05:16:28.234Z,93.90
2023-05-03T05:18:56.456Z,94.00
2023-05-03T05:21:26.945Z,93.90
2023-05-03T05:23:53.623Z,94.10
2023-05-03T05:26:20.854Z,94.00
2023-05-03T05:28:49.949Z,94.00
2023-05-03T05:31:16.903Z,93.80
2023-05-03T05:33:43.957Z,93.80
2023-05-03T05:36:11.914Z,93.70
2023-05-03T05:38:39.278Z,93.80
2023-05-03T05:41:06.560Z,93.60
2023-05-03T05:43:33.367Z,93.80
2023-05-03T05:46:00.284Z,93.80
2023-05-03T05:48:27.362Z,93.90
2023-05-03T05:50:53.998Z,93.80
2023-05-03T05:53:20.629Z,93.60
2023-05-03T05:55:54.564Z,93.90
2023-05-03T05:58:21.324Z,93.80
2023-05-03T06:00:52.778Z,93.90
2023-05-03T06:03:19.780Z,93.70
2023-05-03T06:05:49.287Z,93.50
2023-05-03T06:08:16.000Z,93.40
2023-05-03T06:10:42.662Z,93.70
2023-05-03T06:13:09.734Z,93.10
2023-05-03T06:15:37.763Z,92.80
2023-05-03T06:18:04.639Z,93.20
2023-05-03T06:20:31.539Z,93.10
2023-05-03T06:22:59.329Z,92.40
2023-05-03T06:25:26.681Z,92.50
2023-05-03T06:27:53.468Z,92.20
2023-05-03T06:30:25.568Z,92.30
2023-05-03T06:32:52.488Z,92.50
2023-05-03T06:35:21.650Z,92.50
2023-05-03T06:37:48.461Z,92.10
2023-05-03T06:40:15.923Z,91.90
2023-05-03T06:42:43.602Z,92.30
2023-05-03T06:45:22.000Z,90.50
2023-05-03T06:47:50.098Z,90.70
2023-05-03T06:50:16.825Z,91.50
2023-05-03T06:52:43.401Z,90.00
2023-05-03T06:55:10.170Z,90.20
2023-05-03T06:57:36.764Z,90.20
2023-05-03T07:00:07.179Z,90.50
2023-05-03T07:02:34.156Z,90.10
2023-05-03T07:05:01.299Z,90.10
2023-05-03T07:07:27.890Z,89.40
2023-05-03T07:09:54.594Z,90.40
2023-05-03T07:12:21.234Z,89.50
2023-05-03T07:14:47.994Z,89.40
2023-05-03T07:17:14.569Z,90.70
2023-05-03T07:19:41.178Z,89.70
2023-05-03T07:22:10.122Z,89.80
2023-05-03T07:24:36.951Z,89.00
2023-05-03T07:27:05.862Z,90.30
2023-05-03T07:29:39.269Z,88.40
2023-05-03T07:32:05.978Z,91.40
2023-05-03T07:34:32.806Z,90.10
2023-05-03T07:36:59.637Z,89.80
2023-05-03T07:39:26.298Z,89.50
2023-05-03T07:41:53.264Z,88.60
2023-05-03T07:44:19.919Z,90.20
2023-05-03T07:46:46.522Z,90.10
2023-05-03T07:49:13.178Z,89.00
2023-05-03T07:51:39.808Z,92.50
2023-05-03T07:54:06.726Z,88.60
2023-05-03T07:56:33.611Z,94.00
2023-05-03T07:59:09.212Z,90.10
2023-05-03T08:01:37.290Z,94.00
2023-05-03T08:04:04.729Z,89.00
2023-05-03T08:06:32.825Z,87.30
2023-05-03T08:08:59.600Z,89.50
2023-05-03T08:11:28.826Z,90.00
2023-05-03T08:13:55.934Z,86.60
2023-05-03T08:16:22.882Z,87.20
2023-05-03T08:18:49.726Z,87.90
2023-05-03T08:21:17.525Z,87.90
2023-05-03T08:23:44.895Z,88.10
2023-05-03T08:26:14.025Z,87.40
2023-05-03T08:28:40.925Z,86.40
2023-05-03T08:31:07.776Z,86.60
2023-05-03T08:33:34.567Z,87.50
2023-05-03T08:36:01.610Z,87.90
2023-05-03T08:38:28.742Z,88.40
2023-05-03T08:40:58.016Z,91.90
2023-05-03T08:43:31.107Z,87.90
2023-05-03T08:45:57.821Z,88.50
2023-05-03T08:48:24.558Z,90.50
2023-05-03T08:50:52.699Z,92.70
2023-05-03T08:53:19.417Z,87.40
2023-05-03T08:55:46.077Z,86.80
2023-05-03T08:58:13.568Z,87.80
2023-05-03T09:00:44.570Z,94.00
2023-05-03T09:03:12.890Z,92.60
2023-05-03T09:05:41.215Z,89.00
2023-05-03T09:08:10.228Z,92.80
2023-05-03T09:10:41.819Z,93.50
2023-05-03T09:13:09.616Z,87.50
2023-05-03T09:15:36.598Z,87.10
2023-05-03T09:18:21.708Z,87.40
2023-05-03T09:20:53.192Z,87.30
2023-05-03T09:23:31.126Z,86.00
2023-05-03T09:25:59.058Z,86.00
2023-05-03T09:28:26.588Z,86.80
2023-05-03T09:31:06.055Z,87.80
2023-05-03T09:33:33.484Z,95.40
2023-05-03T09:36:02.464Z,90.20
2023-05-03T09:38:36.914Z,96.40
2023-05-03T09:41:06.095Z,89.20
2023-05-03T09:43:33.321Z,89.90
2023-05-03T09:46:13.279Z,88.40
2023-05-03T09:48:41.152Z,88.00
2023-05-03T09:51:09.015Z,88.80
2023-05-03T09:53:37.023Z,87.60
2023-05-03T09:56:05.238Z,87.90
2023-05-03T09:58:34.947Z,88.20
2023-05-03T10:01:02.240Z,86.90
2023-05-03T10:03:41.018Z,91.60
2023-05-03T10:06:18.805Z,90.50
2023-05-03T10:09:14.625Z,86.10
2023-05-03T10:11:47.928Z,87.20
2023-05-03T10:14:15.263Z,86.90
2023-05-03T10:16:47.514Z,88.20
2023-05-03T10:19:39.885Z,87.00
2023-05-03T10:22:08.467Z,94.80
2023-05-03T10:24:36.547Z,89.30
2023-05-03T10:27:07.022Z,87.50
2023-05-03T10:29:34.530Z,88.40
2023-05-03T10:32:05.289Z,86.70
2023-05-03T10:34:33.780Z,90.40
2023-05-03T10:37:10.157Z,94.80
2023-05-03T10:39:37.631Z,90.00
2023-05-03T10:42:07.853Z,88.60
2023-05-03T10:44:51.190Z,96.60
2023-05-03T10:47:26.462Z,94.60
2023-05-03T10:50:25.226Z,96.80
2023-05-03T10:52:51.901Z,89.20
2023-05-03T10:55:21.039Z,86.90
2023-05-03T10:57:48.970Z,87.40
2023-05-03T11:00:38.457Z,88.20
2023-05-03T11:03:29.719Z,97.00
2023-05-03T11:05:57.405Z,97.50
2023-05-03T11:08:30.517Z,91.00
2023-05-03T11:10:59.747Z,96.40
2023-05-03T11:13:27.448Z,96.40
2023-05-03T11:15:55.403Z,92.70
2023-05-03T11:18:22.852Z,95.10
2023-05-03T11:20:49.827Z,87.40
2023-05-03T11:23:16.647Z,88.80
2023-05-03T11:25:43.243Z,90.30
2023-05-03T11:28:09.884Z,87.70
2023-05-03T11:30:37.351Z,87.20
2023-05-03T11:33:04.143Z,86.80
2023-05-03T11:35:31.876Z,88.80
2023-05-03T11:37:58.612Z,86.30
2023-05-03T11:40:26.005Z,92.40
2023-05-03T11:42:56.959Z,88.90
2023-05-03T11:45:27.018Z,86.30
2023-05-03T11:47:54.058Z,85.90
2023-05-03T11:50:48.019Z,84.90
2023-05-03T11:53:15.902Z,84.70
2023-05-03T11:55:46.287Z,87.30
2023-05-03T11:58:14.881Z,94.80
2023-05-03T12:00:47.216Z,96.30
2023-05-03T12:03:27.787Z,92.00
2023-05-03T12:05:57.771Z,96.50
2023-05-03T12:08:31.116Z,96.80
2023-05-03T12:11:02.776Z,92.10
2023-05-03T12:13:39.829Z,89.50
2023-05-03T12:19:09.097Z,84.00
2023-05-03T12:21:59.237Z,94.30
2023-05-03T12:24:34.217Z,94.30
2023-05-03T12:27:02.738Z,96.30
2023-05-03T12:29:34.115Z,97.40
2023-05-03T12:32:03.122Z,96.20
2023-05-03T12:34:34.865Z,94.80
2023-05-03T12:37:04.835Z,96.60
2023-05-03T12:39:33.425Z,89.60
2023-05-03T12:44:34.942Z,85.80
2023-05-03T12:47:03.241Z,84.50
2023-05-03T12:49:30.581Z,84.00
2023-05-03T12:52:18.628Z,92.30
2023-05-03T12:54:48.929Z,85.10
2023-05-03T12:57:18.936Z,89.60
2023-05-03T12:59:53.468Z,91.10
2023-05-03T13:04:58.456Z,90.50
2023-05-03T13:07:29.528Z,92.90
2023-05-03T13:12:28.093Z,92.50
2023-05-03T13:14:55.344Z,91.10
2023-05-03T13:17:23.035Z,88.40
2023-05-03T13:19:51.124Z,89.10
2023-05-03T13:22:18.230Z,83.10
2023-05-03T13:24:46.618Z,87.80
2023-05-03T13:27:13.414Z,94.40
2023-05-03T13:29:40.513Z,92.30
2023-05-03T13:32:08.210Z,94.30
2023-05-03T13:34:35.574Z,93.80
2023-05-03T13:37:04.069Z,93.70
2023-05-03T13:39:30.780Z,91.00
2023-05-03T13:41:57.421Z,94.00
2023-05-03T13:44:25.311Z,92.40
2023-05-03T13:46:52.820Z,90.60
2023-05-03T13:49:19.661Z,93.10
2023-05-03T13:51:46.395Z,96.70
2023-05-03T13:54:13.101Z,96.00
2023-05-03T13:56:41.532Z,97.10
2023-05-03T13:59:09.637Z,97.00
2023-05-03T14:01:37.774Z,94.70
2023-05-03T14:04:05.093Z,90.90
2023-05-03T14:06:33.576Z,97.40
2023-05-03T14:09:01.471Z,96.90
2023-05-03T14:11:30.093Z,91.90
2023-05-03T14:13:58.311Z,92.50
2023-05-03T14:18:56.713Z,87.60
2023-05-03T14:21:23.656Z,93.60
2023-05-03T14:23:50.957Z,90.70
2023-05-03T14:26:18.120Z,90.90
2023-05-03T14:28:44.841Z,93.00
2023-05-03T14:31:11.930Z,97.20
2023-05-03T14:33:38.634Z,97.10
2023-05-03T14:36:09.100Z,90.80
2023-05-03T14:38:37.123Z,92.90
2023-05-03T14:41:03.954Z,91.90
2023-05-03T14:43:31.013Z,94.10
2023-05-03T14:45:57.617Z,96.20
2023-05-03T14:48:24.205Z,96.20
2023-05-03T14:50:51.993Z,95.20
2023-05-03T14:53:18.738Z,88.80
2023-05-03T14:55:46.139Z,86.50
2023-05-03T14:58:16.036Z,86.70
2023-05-03T15:00:43.512Z,88.50
2023-05-03T15:03:12.035Z,87.40
2023-05-03T15:05:49.599Z,84.90
2023-05-03T15:08:19.086Z,86.50
2023-05-03T15:10:46.531Z,88.10
2023-05-03T15:13:14.384Z,88.30
2023-05-03T15:15:43.445Z,89.10
2023-05-03T15:18:10.913Z,87.40
2023-05-03T15:20:37.955Z,86.80
2023-05-03T15:23:05.033Z,85.80
2023-05-03T15:25:31.990Z,85.70
2023-05-03T15:27:59.994Z,85.90
2023-05-03T15:30:28.793Z,85.40
2023-05-03T15:32:55.839Z,88.20
2023-05-03T15:35:22.525Z,91.40
2023-05-03T15:37:49.491Z,88.20
2023-05-03T15:40:16.637Z,87.20
2023-05-03T15:42:43.240Z,88.30
2023-05-03T15:45:10.478Z,86.40
2023-05-03T15:47:37.116Z,88.60
2023-05-03T15:50:06.273Z,86.70
2023-05-03T15:52:34.660Z,86.40
2023-05-03T15:55:01.330Z,86.20
2023-05-03T15:57:29.640Z,87.50
2023-05-03T15:59:56.997Z,86.30
2023-05-03T16:02:23.720Z,86.10
2023-05-03T16:04:50.667Z,91.20
2023-05-03T16:07:17.876Z,87.40
2023-05-03T16:09:44.593Z,85.50
2023-05-03T16:12:11.283Z,85.30
2023-05-03T16:14:37.949Z,93.80
2023-05-03T16:17:04.622Z,91.10
2023-05-03T16:19:31.952Z,88.40
2023-05-03T16:21:58.889Z,87.80
2023-05-03T16:24:26.087Z,89.90
2023-05-03T16:26:52.924Z,90.00
2023-05-03T16:29:19.961Z,86.10
2023-05-03T16:31:47.016Z,87.10
2023-05-03T16:34:14.176Z,87.30
2023-05-03T16:36:42.948Z,87.60
2023-05-03T16:39:13.787Z,88.50
2023-05-03T16:41:41.516Z,90.50
2023-05-03T16:44:08.527Z,87.50
2023-05-03T16:46:36.243Z,90.00
2023-05-03T16:49:03.694Z,88.40
2023-05-03T16:51:31.406Z,89.00
2023-05-03T16:53:59.104Z,89.70
2023-05-03T16:56:26.306Z,90.70
2023-05-03T16:58:53.453Z,87.90
2023-05-03T17:01:20.128Z,88.40
2023-05-03T17:03:46.903Z,88.90
2023-05-03T17:06:13.798Z,87.20
2023-05-03T17:08:40.425Z,88.90
2023-05-03T17:11:11.589Z,87.20
2023-05-03T17:13:38.413Z,88.20
2023-05-03T17:16:10.200Z,93.60
2023-05-03T17:18:38.514Z,95.30
2023-05-03T17:21:05.559Z,93.40
2023-05-03T17:23:36.088Z,93.00
2023-05-03T17:26:04.692Z,95.60
2023-05-03T17:28:32.552Z,94.30
2023-05-03T17:30:59.769Z,93.30
2023-05-03T17:33:26.988Z,95.90
2023-05-03T17:35:55.463Z,96.10
2023-05-03T17:38:23.032Z,93.50
2023-05-03T17:40:49.913Z,96.80
2023-05-03T17:43:17.529Z,97.50
2023-05-03T17:45:45.995Z,94.30
2023-05-03T17:48:13.270Z,90.90
2023-05-03T17:50:41.528Z,96.10
2023-05-03T17:53:09.379Z,97.50
2023-05-03T17:55:37.948Z,95.60
2023-05-03T17:58:06.129Z,97.20
2023-05-03T18:00:33.403Z,97.50
2023-05-03T18:03:00.271Z,97.90
2023-05-03T18:05:27.352Z,92.80
2023-05-03T18:07:54.257Z,95.30
2023-05-03T18:10:21.118Z,96.90
2023-05-03T18:12:47.957Z,94.70
2023-05-03T18:15:15.447Z,92.90
2023-05-03T18:17:42.725Z,91.60
2023-05-03T18:20:10.341Z,90.40
2023-05-03T18:22:37.446Z,90.30
2023-05-03T18:25:07.155Z,92.80
2023-05-03T18:27:37.226Z,90.80
2023-05-03T18:30:06.471Z,90.80
2023-05-03T18:32:33.864Z,94.90
2023-05-03T18:35:00.714Z,92.40
2023-05-03T18:37:27.847Z,96.40
2023-05-03T18:39:54.801Z,95.50
2023-05-03T18:42:22.343Z,97.10
2023-05-03T18:44:49.156Z,97.10
2023-05-03T18:47:20.257Z,96.80
2023-05-03T18:49:48.452Z,92.40
2023-05-03T18:52:15.261Z,91.00
2023-05-03T18:54:41.869Z,91.00
2023-05-03T18:57:08.497Z,92.30
2023-05-03T18:59:40.310Z,95.20
2023-05-03T19:02:14.336Z,93.50
2023-05-03T19:04:42.695Z,96.50
2023-05-03T19:07:10.417Z,93.60
2023-05-03T19:09:40.362Z,95.00
2023-05-03T19:12:08.527Z,96.90
2023-05-03T19:14:41.474Z,97.90
2023-05-03T19:17:08.781Z,97.90
2023-05-03T19:19:35.431Z,98.00
2023-05-03T19:22:03.003Z,97.50
2023-05-03T19:24:29.606Z,96.90
2023-05-03T19:26:56.373Z,92.90
2023-05-03T19:29:23.055Z,94.10
2023-05-03T19:31:49.818Z,91.50
2023-05-03T19:34:16.422Z,91.10
2023-05-03T19:36:43.016Z,91.00
2023-05-03T19:39:13.129Z,91.10
2023-05-03T19:41:39.702Z,91.10
2023-05-03T19:44:06.377Z,93.50
2023-05-03T19:46:33.845Z,92.10
2023-05-03T19:49:01.275Z,90.90
2023-05-03T19:51:27.975Z,92.30
2023-05-03T19:53:54.786Z,91.20
2023-05-03T19:56:22.017Z,91.50
2023-05-03T19:58:50.529Z,90.40
2023-05-03T20:01:17.495Z,90.40
2023-05-03T20:03:44.312Z,90.80
2023-05-03T20:06:11.175Z,95.10
2023-05-03T20:08:37.883Z,90.70
2023-05-03T20:11:04.691Z,90.70
2023-05-03T20:13:32.041Z,90.50
2023-05-03T20:15:58.713Z,90.20
2023-05-03T20:18:25.440Z,90.60
2023-05-03T20:20:52.250Z,91.10
2023-05-03T20:23:18.896Z,90.70
2023-05-03T20:25:45.474Z,90.90
2023-05-03T20:28:12.900Z,90.80
2023-05-03T20:30:39.553Z,90.60
2023-05-03T20:33:06.228Z,90.90
2023-05-03T20:35:32.894Z,90.70
2023-05-03T20:37:59.529Z,90.50
2023-05-03T20:40:26.230Z,90.60
2023-05-03T20:42:52.869Z,90.80
2023-05-03T20:45:19.603Z,90.80
2023-05-03T20:47:46.304Z,90.90
2023-05-03T20:50:12.968Z,91.00
2023-05-03T20:52:39.596Z,91.10
2023-05-03T20:55:06.499Z,91.10
2023-05-03T20:57:33.200Z,91.20
2023-05-03T21:00:02.156Z,91.00
2023-05-03T21:02:29.090Z,91.20
2023-05-03T21:04:55.761Z,91.00
2023-05-03T21:07:22.355Z,91.30
2023-05-03T21:09:48.954Z,91.10
2023-05-03T21:12:15.622Z,91.10
2023-05-03T21:14:42.216Z,91.00
2023-05-03T21:17:11.321Z,91.10
2023-05-03T21:19:39.530Z,91.20
2023-05-03T21:22:08.236Z,91.10
2023-05-03T21:24:35.427Z,91.00
2023-05-03T21:27:02.626Z,91.30
2023-05-03T21:29:29.330Z,91.20
2023-05-03T21:31:56.113Z,91.30
2023-05-03T21:34:22.734Z,91.30
2023-05-03T21:36:49.919Z,91.30
2023-05-03T21:39:16.502Z,91.40
2023-05-03T21:41:45.969Z,91.40
2023-05-03T21:44:13.169Z,91.40
2023-05-03T21:46:43.015Z,91.70
2023-05-03T21:49:09.764Z,91.80
2023-05-03T21:51:36.582Z,91.70
2023-05-03T21:54:03.260Z,91.70
2023-05-03T21:56:29.940Z,91.90
2023-05-03T21:58:56.578Z,92.00
2023-05-03T22:01:23.239Z,91.90
2023-05-03T22:03:50.220Z,92.00
2023-05-03T22:06:17.102Z,92.10
2023-05-03T22:08:43.820Z,92.10
2023-05-03T22:11:11.345Z,92.00
2023-05-03T22:13:49.736Z,92.20
2023-05-03T22:16:21.580Z,92.10
2023-05-03T22:18:48.811Z,92.20
2023-05-03T22:21:18.685Z,92.40
2023-05-03T22:23:45.322Z,92.30
2023-05-03T22:26:12.407Z,92.50
2023-05-03T22:28:39.052Z,92.50
2023-05-03T22:31:06.195Z,92.50
2023-05-03T22:33:33.024Z,92.60
2023-05-03T22:35:59.635Z,92.60
2023-05-03T22:38:26.205Z,92.70
2023-05-03T22:40:54.011Z,92.60
2023-05-03T22:43:21.142Z,92.80
2023-05-03T22:45:47.813Z,92.70
2023-05-03T22:48:14.637Z,92.80
2023-05-03T22:50:41.283Z,92.90
2023-05-03T22:53:10.973Z,92.90
2023-05-03T22:55:37.638Z,92.80
2023-05-03T22:58:04.325Z,93.00
2023-05-03T23:00:31.352Z,92.80
2023-05-03T23:12:15.559Z,92.90
2023-05-03T23:18:32.654Z,93.00
2023-05-03T23:20:59.245Z,93.00
2023-05-03T23:23:25.910Z,93.10
2023-05-03T23:25:52.625Z,93.10
2023-05-03T23:28:19.664Z,93.10
2023-05-03T23:30:46.588Z,93.00
2023-05-03T23:33:13.623Z,93.10
2023-05-03T23:35:41.678Z,93.10
2023-05-03T23:38:08.326Z,93.00
2023-05-03T23:40:35.031Z,93.10
2023-05-03T23:43:01.653Z,93.20
2023-05-03T23:45:28.330Z,93.20
2023-05-03T23:47:54.945Z,93.30
2023-05-03T23:50:21.849Z,93.30
2023-05-03T23:52:48.498Z,93.20
2023-05-03T23:55:15.142Z,93.20
2023-05-03T23:57:41.800Z,93.20
